createdAt,value
2019-04-01T00:01:56.748Z,17.63
2019-04-01T00:04:25.186Z,18.37
2019-04-01T00:06:53.625Z,17.40
2019-04-01T00:09:22.078Z,16.77
2019-04-01T00:11:50.615Z,16.80
2019-04-01T00:14:19.058Z,16.47
2019-04-01T00:16:47.496Z,16.50
2019-04-01T00:19:15.926Z,15.57
2019-04-01T00:21:44.804Z,16.50
2019-04-01T00:24:14.590Z,15.57
2019-04-01T00:26:56.891Z,15.77
2019-04-01T00:29:13.345Z,15.53
2019-04-01T00:31:41.785Z,16.30
2019-04-01T00:34:10.229Z,15.53
2019-04-01T00:36:38.686Z,15.50
2019-04-01T00:39:07.130Z,17.87
2019-04-01T00:44:13.798Z,16.93
2019-04-01T00:46:42.344Z,17.30
2019-04-01T00:49:10.815Z,16.93
2019-04-01T00:51:39.345Z,17.60
2019-04-01T00:54:07.867Z,16.53
2019-04-01T00:56:36.335Z,16.03
2019-04-01T00:59:04.866Z,15.57
2019-04-01T01:01:33.310Z,15.57
2019-04-01T01:04:01.838Z,15.83
2019-04-01T01:06:30.271Z,16.00
2019-04-01T01:08:58.717Z,15.50
2019-04-01T01:11:27.177Z,16.00
2019-04-01T01:13:55.670Z,18.63
2019-04-01T01:16:42.953Z,19.87
2019-04-01T01:19:11.492Z,19.60
2019-04-01T01:21:39.942Z,17.23
2019-04-01T01:24:08.480Z,15.37
2019-04-01T01:26:36.916Z,15.37
2019-04-01T01:29:24.244Z,16.50
2019-04-01T01:31:52.746Z,18.20
2019-04-01T01:34:21.182Z,17.90
2019-04-01T01:36:49.622Z,16.40
2019-04-01T01:39:18.063Z,17.17
2019-04-01T01:41:46.622Z,15.53
2019-04-01T01:44:15.169Z,16.77
2019-04-01T01:49:54.865Z,17.03
2019-04-01T01:52:42.265Z,18.43
2019-04-01T01:55:22.261Z,16.47
2019-04-01T01:57:50.833Z,19.30
2019-04-01T02:03:08.370Z,15.40
2019-04-01T02:05:36.817Z,15.83
2019-04-01T02:08:05.270Z,15.67
2019-04-01T02:10:33.808Z,16.57
2019-04-01T02:13:21.146Z,15.60
2019-04-01T02:15:49.593Z,15.80
2019-04-01T02:18:18.087Z,16.17
2019-04-01T02:21:05.412Z,16.03
2019-04-01T02:26:37.149Z,16.00
2019-04-01T02:29:05.588Z,17.57
2019-04-01T02:31:34.045Z,16.40
2019-04-01T02:34:02.568Z,15.40
2019-04-01T02:36:31.000Z,16.07
2019-04-01T02:38:59.466Z,16.57
2019-04-01T02:41:28.034Z,16.33
2019-04-01T02:43:56.465Z,16.63
2019-04-01T02:49:27.710Z,15.70
2019-04-01T02:51:56.157Z,15.77
2019-04-01T02:54:24.606Z,15.90
2019-04-01T03:06:03.000Z,15.17
2019-04-01T03:11:42.688Z,15.03
2019-04-01T03:14:30.121Z,15.23
2019-04-01T03:16:58.591Z,15.03
2019-04-01T03:19:27.037Z,16.47
2019-04-01T03:21:55.495Z,16.10
2019-04-01T03:24:23.943Z,15.33
2019-04-01T03:26:52.486Z,16.63
2019-04-01T03:29:21.155Z,16.23
2019-04-01T03:31:49.594Z,16.10
2019-04-01T03:34:18.031Z,15.60
2019-04-01T03:36:46.460Z,15.97
2019-04-01T03:39:14.899Z,14.80
2019-04-01T03:41:43.353Z,17.60
2019-04-01T03:47:38.462Z,16.03
2019-04-01T03:50:07.209Z,17.30
2019-04-01T03:52:35.646Z,18.10
2019-04-01T03:55:04.200Z,19.27
2019-04-01T04:00:44.517Z,15.50
2019-04-01T04:03:13.111Z,18.03
2019-04-01T04:05:41.678Z,19.07
2019-04-01T04:08:10.125Z,20.07
2019-04-01T04:13:13.659Z,16.97
2019-04-01T04:15:42.097Z,18.97
2019-04-01T04:18:29.414Z,18.10
2019-04-01T04:24:00.455Z,16.63
2019-04-01T04:26:29.632Z,18.33
2019-04-01T04:28:58.193Z,20.00
2019-04-01T04:31:26.638Z,26.00
2019-04-01T04:34:13.962Z,29.33
2019-04-01T04:36:42.406Z,29.53
2019-04-01T04:39:10.841Z,25.00
2019-04-01T04:41:58.186Z,23.77
2019-04-01T04:47:29.593Z,16.13
2019-04-01T04:50:16.965Z,17.50
2019-04-01T04:52:45.397Z,17.47
2019-04-01T04:55:13.913Z,17.80
2019-04-01T04:57:42.351Z,16.27
2019-04-01T05:00:10.926Z,16.53
2019-04-01T05:02:39.597Z,15.80
2019-04-01T05:05:08.129Z,16.40
2019-04-01T05:07:36.723Z,15.70
2019-04-01T05:12:59.790Z,17.53
2019-04-01T05:15:28.282Z,29.47
2019-04-01T05:17:56.787Z,17.57
2019-04-01T05:20:25.206Z,16.13
2019-04-01T05:22:53.755Z,16.03
2019-04-01T05:25:22.296Z,17.47
2019-04-01T05:38:40.121Z,17.33
2019-04-01T05:41:08.653Z,18.03
2019-04-01T05:43:37.205Z,17.57
2019-04-01T05:46:05.733Z,17.83
2019-04-01T05:48:34.174Z,28.23
2019-04-01T05:53:56.791Z,20.37
2019-04-01T05:56:25.325Z,19.10
2019-04-01T05:58:53.879Z,25.70
2019-04-01T06:04:34.381Z,16.70
2019-04-01T06:07:02.918Z,16.17
2019-04-01T06:09:31.445Z,15.47
2019-04-01T06:11:59.997Z,17.30
2019-04-01T06:14:47.360Z,17.47
2019-04-01T06:17:16.274Z,16.30
2019-04-01T06:22:39.047Z,18.90
2019-04-01T06:25:07.719Z,20.33
2019-04-01T06:27:38.559Z,16.90
2019-04-01T06:30:07.147Z,17.63
2019-04-01T06:32:35.697Z,17.10
2019-04-01T06:35:04.336Z,17.37
2019-04-01T06:42:53.706Z,17.30
2019-04-01T06:45:22.298Z,20.33
2019-04-01T06:47:50.840Z,18.20
2019-04-01T06:50:19.311Z,18.30
2019-04-01T06:52:47.762Z,17.80
2019-04-01T06:55:16.305Z,19.33
2019-04-01T06:57:44.854Z,19.73
2019-04-01T07:03:21.134Z,18.30
2019-04-01T07:05:49.570Z,19.73
2019-04-01T07:08:18.117Z,18.30
2019-04-01T07:10:46.638Z,17.43
2019-04-01T07:13:15.143Z,19.27
2019-04-01T07:15:43.583Z,18.10
2019-04-01T07:18:12.048Z,17.93
2019-04-01T07:20:40.588Z,17.17
2019-04-01T07:23:09.254Z,17.77
2019-04-01T07:25:37.746Z,16.50
2019-04-01T07:28:06.227Z,15.53
2019-04-01T07:30:34.763Z,18.53
2019-04-01T07:33:03.318Z,16.33
2019-04-01T07:35:31.805Z,17.13
2019-04-01T07:38:00.394Z,18.40
2019-04-01T07:40:29.002Z,16.67
2019-04-01T07:42:57.433Z,18.30
2019-04-01T07:45:25.874Z,16.93
2019-04-01T07:47:54.351Z,16.93
2019-04-01T07:50:22.774Z,16.43
2019-04-01T07:55:26.476Z,13.50
2019-04-01T07:57:55.027Z,13.80
2019-04-01T08:00:23.578Z,12.13
2019-04-01T08:02:52.123Z,12.07
2019-04-01T08:05:20.579Z,12.10
2019-04-01T08:07:49.134Z,12.63
2019-04-01T08:10:17.647Z,12.30
2019-04-01T08:12:46.250Z,10.63
2019-04-01T08:15:14.806Z,11.23
2019-04-01T08:17:43.374Z,11.53
2019-04-01T08:23:19.851Z,10.70
2019-04-01T08:25:48.291Z,11.47
2019-04-01T08:28:16.909Z,10.73
2019-04-01T08:30:45.369Z,11.20
2019-04-01T08:33:13.918Z,11.17
2019-04-01T08:35:42.454Z,10.27
2019-04-01T08:38:11.022Z,10.80
2019-04-01T08:40:39.579Z,9.93
2019-04-01T08:43:08.182Z,10.23
2019-04-01T08:45:43.878Z,9.50
2019-04-01T08:48:12.482Z,9.70
2019-04-01T08:50:41.044Z,10.73
2019-04-01T08:56:01.083Z,11.00
2019-04-01T08:58:28.986Z,9.67
2019-04-01T09:00:57.523Z,11.13
2019-04-01T09:03:25.976Z,9.63
2019-04-01T09:05:54.568Z,8.87
2019-04-01T09:11:12.185Z,9.83
2019-04-01T09:14:00.914Z,8.77
2019-04-01T09:19:10.567Z,7.33
2019-04-01T09:21:39.026Z,7.60
2019-04-01T09:24:07.576Z,7.20
2019-04-01T09:26:36.057Z,7.33
2019-04-01T09:29:04.663Z,7.60
2019-04-01T09:31:33.234Z,8.23
2019-04-01T09:34:01.694Z,7.77
2019-04-01T09:36:30.257Z,6.90
2019-04-01T09:38:58.707Z,8.17
2019-04-01T09:41:27.257Z,8.30
2019-04-01T09:43:55.791Z,9.57
2019-04-01T09:46:24.293Z,8.00
2019-04-01T09:48:52.716Z,7.87
2019-04-01T09:51:21.147Z,7.37
2019-04-01T09:53:49.670Z,6.60
2019-04-01T09:56:18.134Z,8.10
2019-04-01T09:58:46.569Z,7.57
2019-04-01T10:01:15.043Z,7.60
2019-04-01T10:03:43.479Z,7.00
2019-04-01T10:06:12.032Z,7.73
2019-04-01T10:08:42.380Z,7.63
2019-04-01T10:11:12.653Z,7.13
2019-04-01T10:13:41.166Z,8.50
2019-04-01T10:16:09.656Z,7.70
2019-04-01T10:18:38.083Z,7.77
2019-04-01T10:21:06.630Z,7.73
2019-04-01T10:23:35.171Z,8.20
2019-04-01T10:26:03.646Z,8.50
2019-04-01T10:28:32.457Z,8.80
2019-04-01T10:31:02.298Z,8.10
2019-04-01T10:33:30.848Z,7.80
2019-04-01T10:35:59.314Z,7.87
2019-04-01T10:38:27.851Z,7.07
2019-04-01T10:40:56.289Z,7.80
2019-04-01T10:43:24.739Z,8.17
2019-04-01T10:45:53.378Z,8.80
2019-04-01T10:48:21.930Z,8.17
2019-04-01T10:50:50.455Z,8.10
2019-04-01T10:53:18.978Z,7.73
2019-04-01T10:55:47.518Z,8.73
2019-04-01T10:58:15.992Z,8.13
2019-04-01T11:00:44.437Z,7.43
2019-04-01T11:03:13.035Z,7.63
2019-04-01T11:05:41.711Z,8.07
2019-04-01T11:08:10.281Z,8.33
2019-04-01T11:10:38.820Z,8.13
2019-04-01T11:13:07.370Z,7.53
2019-04-01T11:15:35.936Z,7.90
2019-04-01T11:18:04.458Z,7.80
2019-04-01T11:20:33.034Z,8.20
2019-04-01T11:23:02.840Z,8.47
2019-04-01T11:28:26.877Z,8.27
2019-04-01T11:30:55.454Z,8.40
2019-04-01T11:33:42.886Z,9.33
2019-04-01T11:36:11.364Z,9.07
2019-04-01T11:38:39.790Z,9.03
2019-04-01T11:41:08.264Z,9.47
2019-04-01T11:43:36.698Z,9.30
2019-04-01T11:46:05.179Z,9.60
2019-04-01T11:48:34.170Z,8.40
2019-04-01T11:51:03.218Z,8.93
2019-04-01T11:53:31.806Z,7.27
2019-04-01T11:56:00.253Z,8.03
2019-04-01T11:58:28.702Z,8.27
2019-04-01T12:00:57.126Z,7.90
2019-04-01T12:03:25.695Z,8.00
2019-04-01T12:05:54.120Z,8.00
2019-04-01T12:08:22.627Z,8.07
2019-04-01T12:10:51.383Z,8.83
2019-04-01T12:13:20.067Z,6.70
2019-04-01T12:15:48.641Z,7.73
2019-04-01T12:18:17.150Z,8.07
2019-04-01T12:20:45.553Z,7.63
2019-04-01T12:23:14.479Z,8.70
2019-04-01T12:25:44.210Z,7.37
2019-04-01T12:28:14.112Z,6.93
2019-04-01T12:30:42.867Z,7.20
2019-04-01T12:33:11.400Z,7.23
2019-04-01T12:35:39.868Z,7.43
2019-04-01T12:38:08.302Z,9.20
2019-04-01T12:40:36.842Z,7.20
2019-04-01T12:45:52.958Z,6.87
2019-04-01T12:48:21.499Z,6.93
2019-04-01T12:50:49.988Z,6.07
2019-04-01T12:53:18.470Z,6.50
2019-04-01T12:55:46.939Z,5.93
2019-04-01T12:58:17.719Z,5.93
2019-04-01T13:00:45.670Z,6.17
2019-04-01T13:03:33.962Z,5.30
2019-04-01T13:06:02.461Z,6.60
2019-04-01T13:08:30.895Z,6.43
2019-04-01T13:10:59.346Z,7.33
2019-04-01T13:13:27.789Z,7.27
2019-04-01T13:15:56.230Z,5.60
2019-04-01T13:18:24.738Z,5.50
2019-04-01T13:20:53.170Z,5.83
2019-04-01T13:23:21.606Z,6.07
2019-04-01T13:25:50.061Z,6.10
2019-04-01T13:28:18.524Z,5.23
2019-04-01T13:30:47.278Z,6.07
2019-04-01T13:33:17.010Z,5.30
2019-04-01T13:35:45.877Z,5.17
2019-04-01T13:38:15.237Z,5.97
2019-04-01T13:40:44.732Z,6.03
2019-04-01T13:43:16.912Z,4.77
2019-04-01T13:45:44.761Z,5.33
2019-04-01T13:48:13.135Z,5.27
2019-04-01T13:50:41.632Z,5.70
2019-04-01T13:53:10.104Z,5.87
2019-04-01T13:55:38.553Z,5.70
2019-04-01T13:58:06.966Z,5.80
2019-04-01T14:00:35.526Z,5.73
2019-04-01T14:03:04.059Z,6.10
2019-04-01T14:05:32.491Z,5.97
2019-04-01T14:08:00.942Z,5.03
2019-04-01T14:10:48.268Z,5.00
2019-04-01T14:13:16.707Z,4.93
2019-04-01T14:15:45.138Z,4.70
2019-04-01T14:18:13.601Z,5.23
2019-04-01T14:20:42.043Z,5.13
2019-04-01T14:23:10.474Z,5.03
2019-04-01T14:25:38.903Z,5.17
2019-04-01T14:28:07.342Z,4.90
2019-04-01T14:30:36.376Z,4.93
2019-04-01T14:33:05.971Z,4.87
2019-04-01T14:35:35.631Z,5.80
2019-04-01T14:38:04.573Z,5.23
2019-04-01T14:40:33.005Z,4.87
2019-04-01T14:43:01.474Z,5.10
2019-04-01T14:45:30.006Z,5.27
2019-04-01T14:47:58.442Z,5.97
2019-04-01T14:50:26.970Z,5.53
2019-04-01T14:52:55.418Z,5.93
2019-04-01T14:55:24.038Z,5.73
2019-04-01T14:57:52.418Z,5.90
2019-04-01T15:00:20.989Z,5.63
2019-04-01T15:02:49.497Z,5.10
2019-04-01T15:05:18.118Z,6.20
2019-04-01T15:07:47.087Z,5.53
2019-04-01T15:10:17.047Z,5.47
2019-04-01T15:12:45.653Z,5.63
2019-04-01T15:18:21.851Z,5.67
2019-04-01T15:20:50.478Z,5.53
2019-04-01T15:23:18.910Z,5.67
2019-04-01T15:25:47.350Z,5.90
2019-04-01T15:28:15.891Z,6.03
2019-04-01T15:30:44.325Z,5.20
2019-04-01T15:33:12.865Z,5.97
2019-04-01T15:35:41.278Z,6.00
2019-04-01T15:38:09.898Z,5.70
2019-04-01T15:40:38.268Z,5.60
2019-04-01T15:43:06.713Z,5.27
2019-04-01T15:45:35.475Z,5.83
2019-04-01T15:48:05.173Z,5.57
2019-04-01T15:50:33.490Z,5.37
2019-04-01T15:53:01.771Z,5.80
2019-04-01T15:55:31.607Z,6.50
2019-04-01T15:58:00.073Z,8.57
2019-04-01T16:00:28.410Z,6.87
2019-04-01T16:02:56.708Z,6.67
2019-04-01T16:05:25.025Z,8.20
2019-04-01T16:08:12.911Z,7.10
2019-04-01T16:10:41.207Z,6.73
2019-04-01T16:13:09.508Z,6.30
2019-04-01T16:15:38.493Z,6.23
2019-04-01T16:18:07.798Z,6.80
2019-04-01T16:20:50.316Z,6.33
2019-04-01T16:23:06.436Z,6.53
2019-04-01T16:25:37.619Z,7.70
2019-04-01T16:28:05.352Z,6.93
2019-04-01T16:30:33.662Z,6.73
2019-04-01T16:33:02.022Z,7.43
2019-04-01T16:35:30.345Z,17.80
2019-04-01T16:37:59.493Z,10.53
2019-04-01T16:40:28.661Z,15.40
2019-04-01T16:42:57.033Z,16.17
2019-04-01T16:45:25.404Z,36.20
2019-04-01T16:47:53.708Z,23.17
2019-04-01T16:50:22.027Z,71.13
2019-04-01T16:52:50.563Z,111.47
2019-04-01T16:55:18.998Z,86.87
2019-04-01T16:57:47.339Z,127.67
2019-04-01T17:03:23.350Z,27.50
2019-04-01T17:05:51.677Z,22.27
2019-04-01T17:08:19.984Z,15.83
2019-04-01T17:10:48.390Z,42.67
2019-04-01T17:13:16.893Z,175.97
2019-04-01T17:15:45.372Z,142.73
2019-04-01T17:21:08.381Z,43.70
2019-04-01T17:23:36.721Z,44.33
2019-04-01T17:26:05.178Z,33.00
2019-04-01T17:28:33.494Z,20.33
2019-04-01T17:31:01.853Z,17.87
2019-04-01T17:33:30.124Z,26.10
2019-04-01T17:35:58.444Z,27.03
2019-04-01T17:38:26.804Z,33.70
2019-04-01T17:40:55.165Z,23.63
2019-04-01T17:43:23.469Z,33.80
2019-04-01T17:45:51.806Z,27.70
2019-04-01T17:48:20.094Z,34.00
2019-04-01T17:50:48.465Z,23.53
2019-04-01T17:53:16.774Z,64.23
2019-04-01T17:55:45.695Z,45.67
2019-04-01T17:58:15.533Z,31.53
2019-04-01T18:03:41.846Z,25.30
2019-04-01T18:06:10.149Z,44.47
2019-04-01T18:08:38.478Z,86.77
2019-04-01T18:11:06.778Z,55.83
2019-04-01T18:13:36.475Z,133.37
2019-04-01T18:16:04.897Z,50.33
2019-04-01T18:18:34.194Z,105.20
2019-04-01T18:21:03.485Z,71.83
2019-04-01T18:26:33.718Z,56.23
2019-04-01T18:29:02.038Z,69.70
2019-04-01T18:31:30.354Z,39.23
2019-04-01T18:33:59.359Z,33.27
2019-04-01T18:36:28.654Z,59.37
2019-04-01T18:38:56.973Z,56.87
2019-04-01T18:41:25.274Z,39.30
2019-04-01T18:43:53.606Z,29.97
2019-04-01T18:46:23.295Z,21.90
2019-04-01T18:48:51.870Z,16.63
2019-04-01T18:51:20.567Z,22.57
2019-04-01T18:53:50.147Z,20.17
2019-04-01T18:56:18.483Z,17.10
2019-04-01T18:58:46.772Z,16.80
2019-04-01T19:01:16.018Z,17.47
2019-04-01T19:03:45.089Z,15.70
2019-04-01T19:06:13.385Z,9.60
2019-04-01T19:08:41.682Z,10.33
2019-04-01T19:13:43.669Z,14.47
2019-04-01T19:16:13.586Z,12.33
2019-04-01T19:18:42.112Z,14.50
2019-04-01T19:21:11.963Z,12.57
2019-04-01T19:23:40.285Z,12.37
2019-04-01T19:26:10.050Z,12.70
2019-04-01T19:28:38.571Z,11.80
2019-04-01T19:31:06.858Z,14.17
2019-04-01T19:33:35.237Z,13.77
2019-04-01T19:36:03.544Z,14.37
2019-04-01T19:38:31.899Z,14.73
2019-04-01T19:41:00.673Z,12.37
2019-04-01T19:43:29.102Z,28.57
2019-04-01T19:49:06.242Z,11.43
2019-04-01T19:51:36.041Z,10.60
2019-04-01T19:54:31.151Z,10.47
2019-04-01T19:56:55.194Z,10.23
2019-04-01T19:59:25.994Z,11.27
2019-04-01T20:01:53.485Z,20.50
2019-04-01T20:04:23.169Z,15.47
2019-04-01T20:06:51.742Z,14.57
2019-04-01T20:09:20.045Z,15.00
2019-04-01T20:11:48.350Z,15.97
2019-04-01T20:14:16.689Z,12.53
2019-04-01T20:16:47.014Z,11.47
2019-04-01T20:19:15.338Z,12.07
2019-04-01T20:21:43.718Z,11.43
2019-04-01T20:24:12.031Z,12.77
2019-04-01T20:26:40.430Z,11.20
2019-04-01T20:29:08.734Z,11.03
2019-04-01T20:31:37.230Z,14.37
2019-04-01T20:34:19.057Z,43.93
2019-04-01T20:36:36.964Z,15.23
2019-04-01T20:42:14.426Z,22.97
2019-04-01T20:44:42.721Z,15.73
2019-04-01T20:47:11.157Z,14.13
2019-04-01T20:49:39.469Z,14.40
2019-04-01T20:52:07.769Z,13.87
2019-04-01T20:54:36.073Z,10.97
2019-04-01T20:57:05.242Z,11.40
2019-04-01T20:59:34.498Z,11.77
2019-04-01T21:02:03.282Z,13.03
2019-04-01T21:04:32.782Z,11.83
2019-04-01T21:07:01.127Z,12.57
2019-04-01T21:09:29.457Z,12.53
2019-04-01T21:11:57.769Z,12.90
2019-04-01T21:14:26.092Z,12.03
2019-04-01T21:16:55.219Z,11.83
2019-04-01T21:19:24.370Z,9.33
2019-04-01T21:21:52.675Z,7.97
2019-04-01T21:24:20.993Z,8.60
2019-04-01T21:27:08.325Z,7.80
2019-04-01T21:29:36.813Z,8.73
2019-04-01T21:32:05.213Z,9.80
2019-04-01T21:34:33.567Z,8.37
2019-04-01T21:37:03.322Z,7.13
2019-04-01T21:39:31.786Z,7.33
2019-04-01T21:42:00.090Z,8.73
2019-04-01T21:44:28.390Z,7.77
2019-04-01T21:46:56.705Z,6.80
2019-04-01T21:49:24.995Z,7.80
2019-04-01T21:51:53.296Z,7.40
2019-04-01T21:54:21.588Z,6.97
2019-04-01T21:56:49.910Z,8.27
2019-04-01T21:59:18.340Z,6.33
2019-04-01T22:01:46.765Z,6.83
2019-04-01T22:04:15.046Z,8.23
2019-04-01T22:06:43.378Z,7.00
2019-04-01T22:12:00.665Z,7.03
2019-04-01T22:14:28.914Z,12.07
2019-04-01T22:16:57.320Z,23.10
2019-04-01T22:19:25.613Z,8.27
2019-04-01T22:21:53.926Z,7.27
2019-04-01T22:26:56.116Z,6.80
2019-04-01T22:29:25.989Z,6.07
2019-04-01T22:31:54.293Z,7.07
2019-04-01T22:34:22.775Z,6.70
2019-04-01T22:36:51.083Z,6.37
2019-04-01T22:39:26.925Z,6.20
2019-04-01T22:41:49.406Z,6.20
2019-04-01T22:44:17.708Z,5.97
2019-04-01T22:46:47.384Z,5.47
2019-04-01T22:49:15.981Z,5.80
2019-04-01T22:51:44.266Z,6.20
2019-04-01T22:54:12.573Z,5.73
2019-04-01T22:56:40.875Z,5.47
2019-04-01T22:59:09.190Z,6.40
2019-04-01T23:01:37.482Z,6.23
2019-04-01T23:04:05.790Z,5.50
2019-04-01T23:06:34.382Z,6.13
2019-04-01T23:11:45.265Z,5.80
2019-04-01T23:14:13.590Z,5.67
2019-04-01T23:16:41.926Z,5.87
2019-04-01T23:19:10.227Z,6.13
2019-04-01T23:21:38.553Z,5.90
2019-04-01T23:24:06.837Z,5.93
2019-04-01T23:26:35.142Z,5.63
2019-04-01T23:29:04.134Z,6.07
2019-04-01T23:31:32.419Z,6.33
2019-04-01T23:34:00.718Z,5.20
2019-04-01T23:36:29.058Z,5.70
2019-04-01T23:38:57.357Z,5.07
2019-04-01T23:41:25.757Z,5.47
2019-04-01T23:43:54.211Z,5.20
2019-04-01T23:46:24.062Z,5.70
2019-04-01T23:48:52.400Z,5.77
2019-04-01T23:51:20.698Z,5.77
2019-04-01T23:56:22.554Z,5.80
2019-04-01T23:58:51.187Z,5.67
